createdAt,value
2023-03-23T15:59:27.592Z,17.10
2023-03-23T16:01:56.049Z,16.90
2023-03-23T16:04:24.561Z,16.80
2023-03-23T16:06:57.372Z,16.70
2023-03-23T16:09:25.593Z,16.70
2023-03-23T16:11:53.511Z,16.60
2023-03-23T16:14:21.549Z,16.60
2023-03-23T16:16:52.918Z,16.50
2023-03-23T16:19:24.433Z,16.40
2023-03-23T16:21:54.075Z,16.20
2023-03-23T16:24:22.086Z,16.20
2023-03-23T16:26:50.072Z,16.10
2023-03-23T16:29:39.998Z,16.10
2023-03-23T16:32:07.065Z,16.10
2023-03-23T16:34:35.966Z,16.00
2023-03-23T16:37:06.918Z,15.90
2023-03-23T16:39:35.092Z,15.90
2023-03-23T16:42:03.585Z,15.90
2023-03-23T16:44:31.600Z,15.80
2023-03-23T16:46:59.810Z,15.80
2023-03-23T16:49:28.161Z,15.80
2023-03-23T16:51:56.298Z,15.70
2023-03-23T16:54:26.183Z,15.70
2023-03-23T16:56:54.309Z,15.60
2023-03-23T16:59:22.395Z,15.70
2023-03-23T17:01:50.484Z,15.60
2023-03-23T17:04:18.672Z,15.60
2023-03-23T17:06:47.101Z,15.60
2023-03-23T17:09:15.582Z,15.60
2023-03-23T17:11:45.394Z,15.60
2023-03-23T17:14:13.912Z,15.50
2023-03-23T17:16:41.988Z,15.40
2023-03-23T17:19:10.021Z,15.40
2023-03-23T17:21:38.178Z,15.30
2023-03-23T17:24:06.579Z,15.30
2023-03-23T17:26:34.937Z,15.30
2023-03-23T17:29:04.666Z,15.30
2023-03-23T17:31:33.192Z,15.30
2023-03-23T17:34:01.482Z,15.30
2023-03-23T17:36:29.537Z,15.20
2023-03-23T17:38:57.599Z,15.20
2023-03-23T17:41:25.759Z,15.20
2023-03-23T17:43:53.799Z,15.20
2023-03-23T17:46:23.281Z,15.20
2023-03-23T17:48:51.672Z,15.20
2023-03-23T17:51:20.087Z,15.20
2023-03-23T17:53:48.672Z,15.20
2023-03-23T17:56:16.816Z,15.20
2023-03-23T17:58:45.008Z,15.10
2023-03-23T18:01:13.062Z,15.20
2023-03-23T18:03:44.103Z,15.20
2023-03-23T18:06:14.145Z,15.10
2023-03-23T18:08:42.422Z,15.10
2023-03-23T18:11:10.501Z,14.90
2023-03-23T18:13:39.377Z,14.90
2023-03-23T18:16:08.428Z,14.80
2023-03-23T18:18:37.288Z,14.80
2023-03-23T18:21:10.019Z,14.70
2023-03-23T18:23:49.372Z,14.60
2023-03-23T18:26:21.853Z,14.60
2023-03-23T18:28:51.315Z,14.60
2023-03-23T18:31:20.391Z,14.60
2023-03-23T18:33:50.273Z,14.60
2023-03-23T18:36:22.331Z,14.60
2023-03-23T18:38:51.125Z,14.60
2023-03-23T18:41:20.186Z,14.60
2023-03-23T18:43:48.221Z,14.60
2023-03-23T18:46:16.471Z,14.50
2023-03-23T18:48:44.913Z,14.50
2023-03-23T18:51:13.680Z,14.40
2023-03-23T18:53:44.721Z,14.50
2023-03-23T18:56:16.182Z,14.40
2023-03-23T18:58:46.557Z,14.40
2023-03-23T19:01:16.893Z,14.50
2023-03-23T19:03:46.028Z,14.40
2023-03-23T19:06:18.160Z,14.40
2023-03-23T19:08:48.178Z,14.40
2023-03-23T19:11:17.097Z,14.40
2023-03-23T19:13:58.143Z,14.40
2023-03-23T19:16:30.362Z,14.30
2023-03-23T19:18:58.371Z,14.30
2023-03-23T19:21:29.649Z,14.30
2023-03-23T19:24:01.461Z,14.20
2023-03-23T19:26:35.865Z,14.20
2023-03-23T19:29:24.729Z,14.20
2023-03-23T19:31:54.379Z,14.10
2023-03-23T19:34:23.020Z,14.10
2023-03-23T19:36:56.428Z,14.00
2023-03-23T19:39:33.298Z,14.00
2023-03-23T19:42:01.606Z,14.00
2023-03-23T19:44:30.213Z,13.90
2023-03-23T19:46:58.705Z,13.90
2023-03-23T19:49:27.288Z,13.80
2023-03-23T19:52:08.353Z,13.80
2023-03-23T19:54:41.085Z,13.80
2023-03-23T19:57:10.084Z,13.70
2023-03-23T19:59:38.634Z,13.70
2023-03-23T20:02:08.967Z,13.60
2023-03-23T20:04:42.378Z,13.60
2023-03-23T20:07:12.553Z,13.60
2023-03-23T20:09:42.856Z,13.60
2023-03-23T20:12:11.304Z,13.60
2023-03-23T20:14:45.135Z,13.50
2023-03-23T20:17:16.489Z,13.50
2023-03-23T20:20:12.790Z,13.50
2023-03-23T20:22:40.971Z,13.50
2023-03-23T20:25:13.082Z,13.50
2023-03-23T20:27:41.731Z,13.50
2023-03-23T20:30:11.901Z,13.50
2023-03-23T20:32:49.327Z,13.50
2023-03-23T20:35:22.528Z,13.50
2023-03-23T20:37:52.860Z,13.50
2023-03-23T20:40:22.503Z,13.50
2023-03-23T20:42:55.002Z,13.50
2023-03-23T20:45:24.406Z,13.50
2023-03-23T20:47:55.430Z,13.50
2023-03-23T20:50:26.336Z,13.50
2023-03-23T20:52:55.048Z,13.50
2023-03-23T20:55:25.787Z,13.50
2023-03-23T20:57:53.867Z,13.40
2023-03-23T21:00:23.169Z,13.50
2023-03-23T21:02:54.459Z,13.40
2023-03-23T21:05:24.446Z,13.40
2023-03-23T21:07:52.904Z,13.40
2023-03-23T21:10:25.120Z,13.30
2023-03-23T21:12:55.034Z,13.30
2023-03-23T21:15:25.479Z,13.30
2023-03-23T21:17:53.940Z,13.20
2023-03-23T21:20:23.834Z,13.20
2023-03-23T21:22:53.253Z,13.20
2023-03-23T21:25:22.135Z,13.20
2023-03-23T21:28:05.708Z,13.20
2023-03-23T21:30:34.272Z,13.20
2023-03-23T21:33:02.486Z,13.20
2023-03-23T21:35:31.435Z,13.20
2023-03-23T21:37:59.711Z,13.20
2023-03-23T21:40:30.574Z,13.20
2023-03-23T21:42:59.089Z,13.20
2023-03-23T21:45:29.820Z,13.10
2023-03-23T21:47:59.710Z,13.10
2023-03-23T21:50:27.889Z,13.10
2023-03-23T21:52:56.165Z,13.10
2023-03-23T21:55:25.354Z,13.10
2023-03-23T21:57:53.634Z,13.10
2023-03-23T22:00:28.452Z,13.10
2023-03-23T22:03:01.907Z,13.10
2023-03-23T22:05:30.628Z,13.10
2023-03-23T22:07:59.012Z,13.00
2023-03-23T22:11:01.370Z,13.00
2023-03-23T22:13:30.783Z,13.00
2023-03-23T22:16:07.364Z,13.00
2023-03-23T22:18:44.222Z,13.00
2023-03-23T22:21:20.137Z,12.90
2023-03-23T22:23:49.157Z,12.90
2023-03-23T22:26:19.055Z,12.90
2023-03-23T22:28:58.469Z,12.90
2023-03-23T22:31:31.312Z,12.90
2023-03-23T22:34:24.037Z,12.90
2023-03-23T22:36:54.250Z,12.90
2023-03-23T22:39:43.081Z,12.90
2023-03-23T22:42:12.443Z,12.80
2023-03-23T22:44:43.544Z,12.80
2023-03-23T22:47:18.681Z,12.80
2023-03-23T22:49:57.046Z,12.80
2023-03-23T22:52:28.279Z,12.80
2023-03-23T22:54:59.795Z,12.80
2023-03-23T22:57:30.797Z,12.80
2023-03-23T23:00:00.392Z,12.70
2023-03-23T23:02:37.861Z,12.70
2023-03-23T23:05:08.267Z,12.70
2023-03-23T23:07:44.372Z,12.70
2023-03-23T23:10:13.074Z,12.70
2023-03-23T23:12:42.519Z,12.70
2023-03-23T23:15:14.567Z,12.70
2023-03-23T23:17:44.118Z,12.70
2023-03-23T23:20:19.906Z,12.70
2023-03-23T23:22:48.755Z,12.60
2023-03-23T23:25:39.970Z,12.70
2023-03-23T23:28:08.610Z,12.70
2023-03-23T23:30:37.614Z,12.70
2023-03-23T23:33:06.209Z,12.70
2023-03-23T23:35:38.071Z,12.70
2023-03-23T23:38:11.709Z,12.80
2023-03-23T23:40:46.647Z,12.80
2023-03-23T23:43:37.047Z,12.80
2023-03-23T23:46:08.430Z,12.80
2023-03-23T23:48:51.353Z,12.80
2023-03-23T23:51:27.596Z,12.80
2023-03-23T23:54:02.673Z,12.80
2023-03-23T23:56:34.227Z,12.80
2023-03-23T23:59:02.892Z,12.80
